createdAt,value
2018-06-30T00:01:54.425Z,99.90
2018-06-30T00:04:23.148Z,99.90
2018-06-30T00:06:51.843Z,99.90
2018-06-30T00:09:20.590Z,99.90
2018-06-30T00:11:49.317Z,99.90
2018-06-30T00:14:18.004Z,99.90
2018-06-30T00:16:46.709Z,99.90
2018-06-30T00:22:03.371Z,99.90
2018-06-30T00:24:32.061Z,99.90
2018-06-30T00:27:06.075Z,99.90
2018-06-30T00:29:34.750Z,99.90
2018-06-30T00:32:03.477Z,99.90
2018-06-30T00:34:32.169Z,99.90
2018-06-30T00:37:00.873Z,99.90
2018-06-30T00:41:57.916Z,99.90
2018-06-30T00:44:26.606Z,99.90
2018-06-30T00:46:55.297Z,99.90
2018-06-30T00:49:23.988Z,99.90
2018-06-30T00:51:52.819Z,99.90
2018-06-30T00:54:21.512Z,99.90
2018-06-30T00:56:50.251Z,99.90
2018-06-30T00:59:18.963Z,99.90
2018-06-30T01:01:53.339Z,99.90
2018-06-30T01:04:22.051Z,99.90
2018-06-30T01:07:02.821Z,99.90
2018-06-30T01:09:31.532Z,99.90
2018-06-30T01:12:00.290Z,99.90
2018-06-30T01:14:29.071Z,99.90
2018-06-30T01:16:57.790Z,99.90
2018-06-30T01:19:26.516Z,99.90
2018-06-30T01:21:55.204Z,99.90
2018-06-30T01:24:23.938Z,99.90
2018-06-30T01:26:52.681Z,99.90
2018-06-30T01:29:21.370Z,99.90
2018-06-30T01:31:50.074Z,99.90
2018-06-30T01:34:18.741Z,99.90
2018-06-30T01:36:47.430Z,99.90
2018-06-30T01:39:16.106Z,99.90
2018-06-30T01:41:44.781Z,99.90
2018-06-30T01:44:13.478Z,99.90
2018-06-30T01:46:42.151Z,99.90
2018-06-30T01:49:10.882Z,99.90
2018-06-30T01:51:39.577Z,99.90
2018-06-30T01:54:08.262Z,99.90
2018-06-30T01:56:36.982Z,99.90
2018-06-30T01:59:05.645Z,99.90
2018-06-30T02:01:34.390Z,99.90
2018-06-30T02:04:03.130Z,99.90
2018-06-30T02:06:31.846Z,99.90
2018-06-30T02:09:00.557Z,99.90
2018-06-30T02:11:29.303Z,99.90
2018-06-30T02:13:57.982Z,99.90
2018-06-30T02:16:26.710Z,99.90
2018-06-30T02:18:55.371Z,99.90
2018-06-30T02:21:24.046Z,99.90
2018-06-30T02:23:52.733Z,99.90
2018-06-30T02:26:21.416Z,99.90
2018-06-30T02:28:50.095Z,99.90
2018-06-30T02:31:18.879Z,99.90
2018-06-30T02:33:47.601Z,99.90
2018-06-30T02:36:16.347Z,99.90
2018-06-30T02:38:45.251Z,99.90
2018-06-30T02:41:13.922Z,99.90
2018-06-30T02:43:42.642Z,99.90
2018-06-30T02:46:11.379Z,99.90
2018-06-30T02:48:40.072Z,99.90
2018-06-30T02:51:08.788Z,99.90
2018-06-30T02:53:37.504Z,99.90
2018-06-30T02:56:07.276Z,99.90
2018-06-30T02:58:36.000Z,99.90
2018-06-30T03:01:04.759Z,99.90
2018-06-30T03:03:33.475Z,99.90
2018-06-30T03:06:02.163Z,99.90
2018-06-30T03:08:30.889Z,99.90
2018-06-30T03:10:59.620Z,99.90
2018-06-30T03:13:28.327Z,99.90
2018-06-30T03:15:57.277Z,99.90
2018-06-30T03:18:25.982Z,99.90
2018-06-30T03:20:54.686Z,99.90
2018-06-30T03:23:23.402Z,99.90
2018-06-30T03:25:52.131Z,99.90
2018-06-30T03:28:20.825Z,99.90
2018-06-30T03:31:07.884Z,99.90
2018-06-30T03:33:36.575Z,99.90
2018-06-30T03:36:05.329Z,99.90
2018-06-30T03:38:34.072Z,99.90
2018-06-30T03:41:02.706Z,99.90
2018-06-30T03:43:31.394Z,99.90
2018-06-30T03:46:00.099Z,99.90
2018-06-30T03:50:57.141Z,99.90
2018-06-30T03:53:25.855Z,99.90
2018-06-30T03:55:54.648Z,99.90
2018-06-30T03:58:23.347Z,99.90
2018-06-30T04:00:52.054Z,99.90
2018-06-30T04:03:20.776Z,99.90
2018-06-30T04:05:49.485Z,99.90
2018-06-30T04:08:18.170Z,99.90
2018-06-30T04:10:46.941Z,99.90
2018-06-30T04:13:15.634Z,99.90
2018-06-30T04:15:44.346Z,99.90
2018-06-30T04:18:13.026Z,99.90
2018-06-30T04:20:41.719Z,99.90
2018-06-30T04:23:10.412Z,99.90
2018-06-30T04:25:39.112Z,99.90
2018-06-30T04:28:07.847Z,99.90
2018-06-30T04:30:36.551Z,99.90
2018-06-30T04:33:05.547Z,99.90
2018-06-30T04:35:34.245Z,99.90
2018-06-30T04:38:02.934Z,99.90
2018-06-30T04:40:31.662Z,99.90
2018-06-30T04:43:00.414Z,99.90
2018-06-30T04:45:29.141Z,99.90
2018-06-30T04:47:57.862Z,99.90
2018-06-30T04:50:26.611Z,99.90
2018-06-30T04:52:55.428Z,99.90
2018-06-30T04:57:52.450Z,99.90
2018-06-30T05:00:21.194Z,99.90
2018-06-30T05:02:49.889Z,99.90
2018-06-30T05:05:18.668Z,99.90
2018-06-30T05:07:47.389Z,99.90
2018-06-30T05:10:16.094Z,99.90
2018-06-30T05:12:44.801Z,99.90
2018-06-30T05:15:13.546Z,99.90
2018-06-30T05:17:42.275Z,99.90
2018-06-30T05:20:10.942Z,99.90
2018-06-30T05:22:39.646Z,99.90
2018-06-30T05:25:08.367Z,99.90
2018-06-30T05:27:37.112Z,99.90
2018-06-30T05:30:06.223Z,99.90
2018-06-30T05:32:34.981Z,99.90
2018-06-30T05:35:03.818Z,99.90
2018-06-30T05:37:32.582Z,99.90
2018-06-30T05:40:01.279Z,99.90
2018-06-30T05:42:32.126Z,99.90
2018-06-30T05:45:00.882Z,99.90
2018-06-30T05:47:29.894Z,99.90
2018-06-30T05:49:58.699Z,99.90
2018-06-30T05:52:27.516Z,99.90
2018-06-30T05:54:56.255Z,99.90
2018-06-30T05:57:24.981Z,99.90
2018-06-30T05:59:53.703Z,99.90
2018-06-30T06:02:22.519Z,99.90
2018-06-30T06:04:51.198Z,99.90
2018-06-30T06:07:21.126Z,99.90
2018-06-30T06:12:18.168Z,99.90
2018-06-30T06:14:46.887Z,99.90
2018-06-30T06:17:15.567Z,99.90
2018-06-30T06:19:44.870Z,99.90
2018-06-30T06:22:14.103Z,99.90
2018-06-30T06:24:43.946Z,99.90
2018-06-30T06:27:12.636Z,99.90
2018-06-30T06:29:41.642Z,99.90
2018-06-30T06:32:10.351Z,99.90
2018-06-30T06:34:45.447Z,99.90
2018-06-30T06:37:15.723Z,99.90
2018-06-30T06:39:44.723Z,99.90
2018-06-30T06:42:13.412Z,99.90
2018-06-30T06:44:42.131Z,99.90
2018-06-30T06:47:10.988Z,99.90
2018-06-30T06:49:40.066Z,99.90
2018-06-30T06:52:09.194Z,99.90
2018-06-30T06:54:37.945Z,99.90
2018-06-30T06:59:34.979Z,99.90
2018-06-30T07:02:03.680Z,99.90
2018-06-30T07:04:33.449Z,99.90
2018-06-30T07:07:02.859Z,99.90
2018-06-30T07:09:31.588Z,99.90
2018-06-30T07:12:10.674Z,99.90
2018-06-30T07:14:39.410Z,99.90
2018-06-30T07:17:08.138Z,99.90
2018-06-30T07:19:37.719Z,99.90
2018-06-30T07:22:06.462Z,99.90
2018-06-30T07:24:35.228Z,99.90
2018-06-30T07:27:04.132Z,99.90
2018-06-30T07:32:01.138Z,99.90
2018-06-30T07:34:29.872Z,99.90
2018-06-30T07:37:18.388Z,99.90
2018-06-30T07:39:47.071Z,99.90
2018-06-30T07:42:15.842Z,99.90
2018-06-30T07:44:44.588Z,99.90
2018-06-30T07:47:13.282Z,99.90
2018-06-30T07:49:42.036Z,99.90
2018-06-30T07:52:10.782Z,99.90
2018-06-30T07:57:07.824Z,99.90
2018-06-30T07:59:36.559Z,99.90
2018-06-30T08:02:05.409Z,99.90
2018-06-30T08:04:34.180Z,99.90
2018-06-30T08:07:02.935Z,99.90
2018-06-30T08:09:31.642Z,99.90
2018-06-30T08:12:00.378Z,99.90
2018-06-30T08:14:29.124Z,99.90
2018-06-30T08:16:57.892Z,99.90
2018-06-30T08:19:26.642Z,99.90
2018-06-30T08:21:55.434Z,99.90
2018-06-30T08:24:24.258Z,99.90
2018-06-30T08:26:53.144Z,99.90
2018-06-30T08:29:21.966Z,99.90
2018-06-30T08:31:50.691Z,99.90
2018-06-30T08:34:19.538Z,99.90
2018-06-30T08:36:48.234Z,99.90
2018-06-30T08:39:16.987Z,99.90
2018-06-30T08:41:45.708Z,99.90
2018-06-30T08:44:14.486Z,99.90
2018-06-30T08:46:43.248Z,99.90
2018-06-30T08:49:12.446Z,99.90
2018-06-30T08:51:41.226Z,99.90
2018-06-30T08:54:09.953Z,99.90
2018-06-30T08:56:38.668Z,99.90
2018-06-30T08:59:07.418Z,99.90
2018-06-30T09:01:36.161Z,99.90
2018-06-30T09:04:04.940Z,99.90
2018-06-30T09:06:33.703Z,99.90
2018-06-30T09:09:02.544Z,99.90
2018-06-30T09:11:31.308Z,99.90
2018-06-30T09:14:00.031Z,99.90
2018-06-30T09:16:28.779Z,99.90
2018-06-30T09:18:57.530Z,99.90
2018-06-30T09:21:26.273Z,99.90
2018-06-30T09:23:55.044Z,99.90
2018-06-30T09:26:23.780Z,99.90
2018-06-30T09:28:52.542Z,99.90
2018-06-30T09:31:21.370Z,99.90
2018-06-30T09:33:50.083Z,99.90
2018-06-30T09:36:18.842Z,99.90
2018-06-30T09:41:15.983Z,99.90
2018-06-30T09:43:44.689Z,99.90
2018-06-30T09:46:13.392Z,99.90
2018-06-30T09:48:42.162Z,99.90
2018-06-30T09:51:10.948Z,99.90
2018-06-30T09:53:39.655Z,99.90
2018-06-30T09:56:08.426Z,99.90
2018-06-30T09:58:37.155Z,99.90
2018-06-30T10:01:08.293Z,99.90
2018-06-30T10:03:38.275Z,99.90
2018-06-30T10:06:07.141Z,99.90
2018-06-30T10:08:36.006Z,99.90
2018-06-30T10:11:04.787Z,99.90
2018-06-30T10:13:33.518Z,99.90
2018-06-30T10:16:02.278Z,99.90
2018-06-30T10:18:31.091Z,99.00
2018-06-30T10:23:56.382Z,97.80
2018-06-30T10:26:25.184Z,96.80
2018-06-30T10:28:53.994Z,97.00
2018-06-30T10:31:22.839Z,97.90
2018-06-30T10:33:51.485Z,95.20
2018-06-30T10:36:20.248Z,93.90
2018-06-30T10:38:49.022Z,93.70
2018-06-30T10:41:17.760Z,94.40
2018-06-30T10:43:46.463Z,93.50
2018-06-30T10:46:38.053Z,92.40
2018-06-30T10:49:07.663Z,92.70
2018-06-30T10:51:36.513Z,92.40
2018-06-30T10:54:05.254Z,91.70
2018-06-30T10:56:36.278Z,92.50
2018-06-30T10:59:07.088Z,92.60
2018-06-30T11:01:35.929Z,91.20
2018-06-30T11:04:10.169Z,91.60
2018-06-30T11:06:38.903Z,88.50
2018-06-30T11:09:10.523Z,88.90
2018-06-30T11:11:39.283Z,87.90
2018-06-30T11:14:08.054Z,89.40
2018-06-30T11:16:36.780Z,90.70
2018-06-30T11:19:05.578Z,88.10
2018-06-30T11:21:34.274Z,87.20
2018-06-30T11:24:03.067Z,85.80
2018-06-30T11:29:42.558Z,86.40
2018-06-30T11:32:11.724Z,83.70
2018-06-30T11:34:40.434Z,84.10
2018-06-30T11:37:09.154Z,81.60
2018-06-30T11:39:38.078Z,82.60
2018-06-30T11:42:07.942Z,83.20
2018-06-30T11:44:37.331Z,80.20
2018-06-30T11:47:06.246Z,80.60
2018-06-30T11:49:35.023Z,81.60
2018-06-30T11:52:03.820Z,78.70
2018-06-30T11:54:32.502Z,80.70
2018-06-30T11:59:55.058Z,79.60
2018-06-30T12:02:23.751Z,77.20
2018-06-30T12:04:52.506Z,78.00
2018-06-30T12:07:21.222Z,76.10
2018-06-30T12:09:49.905Z,75.00
2018-06-30T12:12:18.680Z,75.50
2018-06-30T12:14:47.422Z,75.60
2018-06-30T12:17:16.134Z,77.50
2018-06-30T12:19:44.834Z,79.80
2018-06-30T12:22:13.557Z,74.40
2018-06-30T12:24:43.237Z,73.70
2018-06-30T12:29:44.203Z,76.00
2018-06-30T12:32:13.047Z,76.80
2018-06-30T12:34:41.741Z,73.10
2018-06-30T12:37:10.421Z,72.50
2018-06-30T12:39:48.771Z,71.00
2018-06-30T12:42:17.446Z,72.70
2018-06-30T12:44:47.165Z,69.60
2018-06-30T12:47:15.894Z,68.70
2018-06-30T12:49:44.579Z,70.50
2018-06-30T12:52:13.329Z,68.80
2018-06-30T12:57:10.493Z,69.40
2018-06-30T12:59:39.187Z,67.30
2018-06-30T13:04:36.204Z,68.60
2018-06-30T13:07:05.009Z,66.60
2018-06-30T13:09:33.787Z,65.00
2018-06-30T13:12:02.714Z,65.00
2018-06-30T13:14:42.006Z,66.10
2018-06-30T13:17:13.420Z,65.60
2018-06-30T13:19:42.295Z,66.80
2018-06-30T13:22:11.001Z,68.80
2018-06-30T13:24:39.724Z,67.80
2018-06-30T13:27:08.421Z,66.30
2018-06-30T13:29:37.115Z,65.40
2018-06-30T13:32:11.941Z,64.80
2018-06-30T13:34:42.703Z,63.00
2018-06-30T13:37:11.426Z,62.00
2018-06-30T13:39:40.152Z,65.00
2018-06-30T13:42:09.350Z,64.00
2018-06-30T13:47:06.414Z,64.40
2018-06-30T13:49:46.279Z,61.60
2018-06-30T13:55:05.495Z,63.70
2018-06-30T13:57:34.297Z,61.50
2018-06-30T14:00:15.350Z,62.80
2018-06-30T14:02:44.236Z,63.30
2018-06-30T14:05:12.938Z,62.80
2018-06-30T14:07:41.679Z,60.20
2018-06-30T14:10:10.466Z,59.70
2018-06-30T14:12:39.307Z,60.70
2018-06-30T14:15:09.361Z,59.80
2018-06-30T14:20:38.750Z,61.80
2018-06-30T14:23:07.550Z,61.70
2018-06-30T14:25:36.238Z,60.80
2018-06-30T14:28:05.060Z,61.90
2018-06-30T14:30:33.782Z,61.10
2018-06-30T14:33:03.534Z,59.80
2018-06-30T14:35:33.395Z,61.30
2018-06-30T14:38:02.100Z,60.60
2018-06-30T14:40:30.849Z,61.50
2018-06-30T14:43:11.863Z,62.60
2018-06-30T14:45:40.631Z,63.30
2018-06-30T14:48:09.358Z,62.90
2018-06-30T14:50:43.574Z,64.30
2018-06-30T14:53:12.522Z,65.40
2018-06-30T14:55:41.190Z,66.50
2018-06-30T14:58:23.218Z,67.10
2018-06-30T15:00:51.942Z,66.40
2018-06-30T15:03:20.662Z,66.60
2018-06-30T15:05:49.413Z,68.10
2018-06-30T15:08:19.224Z,69.30
2018-06-30T15:10:47.938Z,67.40
2018-06-30T15:13:16.634Z,66.80
2018-06-30T15:15:45.398Z,66.70
2018-06-30T15:18:14.126Z,66.50
2018-06-30T15:20:42.846Z,66.90
2018-06-30T15:23:11.541Z,67.20
2018-06-30T15:25:40.221Z,65.80
2018-06-30T15:28:12.098Z,66.50
2018-06-30T15:30:40.830Z,67.20
2018-06-30T15:36:04.895Z,66.20
2018-06-30T15:41:38.143Z,65.50
2018-06-30T15:44:07.182Z,65.20
2018-06-30T15:46:35.952Z,64.20
2018-06-30T15:49:04.799Z,64.00
2018-06-30T15:51:33.509Z,64.30
2018-06-30T15:54:02.211Z,64.30
2018-06-30T15:56:31.018Z,63.80
2018-06-30T15:58:59.695Z,64.20
2018-06-30T16:01:28.486Z,62.80
2018-06-30T16:03:57.190Z,64.90
2018-06-30T16:06:25.982Z,63.30
2018-06-30T16:08:54.675Z,63.00
2018-06-30T16:11:23.422Z,62.30
2018-06-30T16:13:52.188Z,63.50
2018-06-30T16:16:20.952Z,63.90
2018-06-30T16:18:49.906Z,62.20
2018-06-30T16:21:18.682Z,62.00
2018-06-30T16:23:49.428Z,63.60
2018-06-30T16:26:18.125Z,62.70
2018-06-30T16:28:46.853Z,63.70
2018-06-30T16:31:15.538Z,63.70
2018-06-30T16:36:45.785Z,62.70
2018-06-30T16:39:16.574Z,62.70
2018-06-30T16:41:45.273Z,63.40
2018-06-30T16:44:13.988Z,62.60
2018-06-30T16:49:11.194Z,64.50
2018-06-30T16:51:58.640Z,62.10
2018-06-30T16:54:27.352Z,61.70
2018-06-30T16:56:56.074Z,61.70
2018-06-30T16:59:28.799Z,62.00
2018-06-30T17:01:57.478Z,60.50
2018-06-30T17:04:26.179Z,61.80
2018-06-30T17:06:54.926Z,62.10
2018-06-30T17:09:24.477Z,62.10
2018-06-30T17:11:53.182Z,61.40
2018-06-30T17:14:21.881Z,62.10
2018-06-30T17:16:56.737Z,61.40
2018-06-30T17:19:25.441Z,62.10
2018-06-30T17:21:54.178Z,61.90
2018-06-30T17:24:22.878Z,61.60
2018-06-30T17:26:51.661Z,61.70
2018-06-30T17:29:20.442Z,61.80
2018-06-30T17:31:49.179Z,62.50
2018-06-30T17:34:17.902Z,61.70
2018-06-30T17:36:46.916Z,62.50
2018-06-30T17:39:15.857Z,63.00
2018-06-30T17:41:44.822Z,62.70
2018-06-30T17:44:13.640Z,63.70
2018-06-30T17:46:42.322Z,64.10
2018-06-30T17:49:11.442Z,64.60
2018-06-30T17:51:40.162Z,65.90
2018-06-30T17:54:09.335Z,66.00
2018-06-30T17:56:38.197Z,66.80
2018-06-30T17:59:06.915Z,68.20
2018-06-30T18:01:35.679Z,68.50
2018-06-30T18:04:04.526Z,68.40
2018-06-30T18:06:33.302Z,69.70
2018-06-30T18:09:01.964Z,68.90
2018-06-30T18:14:17.384Z,69.70
2018-06-30T18:16:46.181Z,70.60
2018-06-30T18:19:16.822Z,71.10
2018-06-30T18:21:45.556Z,71.10
2018-06-30T18:24:14.430Z,71.40
2018-06-30T18:26:43.176Z,70.90
2018-06-30T18:29:11.997Z,70.70
2018-06-30T18:31:40.687Z,70.90
2018-06-30T18:34:09.402Z,71.00
2018-06-30T18:36:38.123Z,71.10
2018-06-30T18:44:52.681Z,71.10
2018-06-30T18:47:23.394Z,70.50
2018-06-30T18:49:56.121Z,71.10
2018-06-30T18:52:25.083Z,71.40
2018-06-30T18:55:05.896Z,71.40
2018-06-30T18:57:37.189Z,71.50
2018-06-30T19:00:07.243Z,71.90
2018-06-30T19:02:36.206Z,72.80
2018-06-30T19:05:05.084Z,71.80
2018-06-30T19:07:33.783Z,72.30
2018-06-30T19:10:02.576Z,71.90
2018-06-30T19:12:36.593Z,70.80
2018-06-30T19:15:06.034Z,69.70
2018-06-30T19:17:34.958Z,69.70
2018-06-30T19:20:05.647Z,70.00
2018-06-30T19:22:34.418Z,69.60
2018-06-30T19:25:03.341Z,71.10
2018-06-30T19:27:32.064Z,69.40
2018-06-30T19:30:00.779Z,68.90
2018-06-30T19:32:32.535Z,70.50
2018-06-30T19:35:03.631Z,66.70
2018-06-30T19:37:32.349Z,67.20
2018-06-30T19:40:01.397Z,65.80
2018-06-30T19:42:30.070Z,64.70
2018-06-30T19:44:58.799Z,65.50
2018-06-30T19:47:27.461Z,63.30
2018-06-30T19:49:57.523Z,64.70
2018-06-30T19:52:27.030Z,61.30
2018-06-30T19:54:55.781Z,58.60
2018-06-30T19:57:25.409Z,57.70
2018-06-30T19:59:54.097Z,56.90
2018-06-30T20:02:23.859Z,56.00
2018-06-30T20:04:52.741Z,56.10
2018-06-30T20:07:21.421Z,55.60
2018-06-30T20:09:50.142Z,56.10
2018-06-30T20:12:19.433Z,55.40
2018-06-30T20:14:50.280Z,56.40
2018-06-30T20:17:18.949Z,56.70
2018-06-30T20:19:47.623Z,55.30
2018-06-30T20:22:16.326Z,56.30
2018-06-30T20:24:45.005Z,54.90
2018-06-30T20:27:13.942Z,55.00
2018-06-30T20:29:42.623Z,53.90
2018-06-30T20:32:11.283Z,54.50
2018-06-30T20:34:39.982Z,54.90
2018-06-30T20:37:08.801Z,53.20
2018-06-30T20:39:37.567Z,53.00
2018-06-30T20:42:06.306Z,52.50
2018-06-30T20:44:34.986Z,52.60
2018-06-30T20:47:03.759Z,52.10
2018-06-30T20:49:32.518Z,53.80
2018-06-30T20:52:01.332Z,51.90
2018-06-30T20:54:30.085Z,51.70
2018-06-30T20:56:58.795Z,53.10
2018-06-30T20:59:27.503Z,51.70
2018-06-30T21:01:56.178Z,51.50
2018-06-30T21:04:24.926Z,53.10
2018-06-30T21:06:53.642Z,52.90
2018-06-30T21:09:22.325Z,51.60
2018-06-30T21:11:51.094Z,50.70
2018-06-30T21:14:19.798Z,53.50
2018-06-30T21:16:48.583Z,51.80
2018-06-30T21:19:17.305Z,50.50
2018-06-30T21:21:46.043Z,53.30
2018-06-30T21:24:14.786Z,51.70
2018-06-30T21:26:43.483Z,51.70
2018-06-30T21:29:12.311Z,51.90
2018-06-30T21:31:41.123Z,51.30
2018-06-30T21:34:09.812Z,51.40
2018-06-30T21:36:38.592Z,52.60
2018-06-30T21:39:10.648Z,51.50
2018-06-30T21:41:39.478Z,51.70
2018-06-30T21:44:08.173Z,53.10
2018-06-30T21:46:37.222Z,52.10
2018-06-30T21:49:06.091Z,54.00
2018-06-30T21:51:36.890Z,53.60
2018-06-30T21:54:13.774Z,53.90
2018-06-30T21:56:42.521Z,54.30
2018-06-30T21:59:11.492Z,53.50
2018-06-30T22:01:41.019Z,52.50
2018-06-30T22:04:09.762Z,53.10
2018-06-30T22:06:38.527Z,53.80
2018-06-30T22:09:09.098Z,52.60
2018-06-30T22:11:37.914Z,52.10
2018-06-30T22:14:06.907Z,52.60
2018-06-30T22:16:35.666Z,52.70
2018-06-30T22:19:04.563Z,52.70
2018-06-30T22:21:33.303Z,53.00
2018-06-30T22:24:02.315Z,53.50
2018-06-30T22:26:31.421Z,53.70
2018-06-30T22:29:00.242Z,53.40
2018-06-30T22:31:35.626Z,54.20
2018-06-30T22:34:26.319Z,53.90
2018-06-30T22:37:17.475Z,55.60
2018-06-30T22:39:58.345Z,55.60
2018-06-30T22:45:33.636Z,54.40
2018-06-30T22:48:02.353Z,54.60
2018-06-30T22:50:31.096Z,54.60
2018-06-30T22:52:59.819Z,55.90
2018-06-30T22:55:28.748Z,55.80
2018-06-30T22:58:09.492Z,55.50
2018-06-30T23:00:38.239Z,57.30
2018-06-30T23:03:10.994Z,56.30
2018-06-30T23:05:40.535Z,56.90
2018-06-30T23:08:09.308Z,56.90
2018-06-30T23:10:38.030Z,57.20
2018-06-30T23:13:06.947Z,57.90
2018-06-30T23:15:35.638Z,58.70
2018-06-30T23:18:08.195Z,59.20
2018-06-30T23:20:36.910Z,58.30
2018-06-30T23:23:12.410Z,58.90
2018-06-30T23:25:43.895Z,59.00
2018-06-30T23:28:12.673Z,59.40
2018-06-30T23:30:41.370Z,59.40
2018-06-30T23:33:10.079Z,59.60
2018-06-30T23:35:38.778Z,60.30
2018-06-30T23:38:11.190Z,61.10
2018-06-30T23:40:39.912Z,60.20
2018-06-30T23:43:08.613Z,60.40
2018-06-30T23:45:37.305Z,62.10
2018-06-30T23:48:06.367Z,61.40
2018-06-30T23:50:35.111Z,61.80
2018-06-30T23:53:03.882Z,63.50
2018-06-30T23:55:32.586Z,64.90
2018-06-30T23:58:01.299Z,65.20
